sensor_id;sensor_type;location;lat;lon;timestamp;P1;durP1;ratioP1;P2;durP2;ratioP2
7306;SDS011;3694;48.732;9.248;2022-11-15T00:00:49;11.83;;;6.13;;
7306;SDS011;3694;48.732;9.248;2022-11-15T00:03:20;10.67;;;6.43;;
7306;SDS011;3694;48.732;9.248;2022-11-15T00:05:47;6.63;;;5.40;;
7306;SDS011;3694;48.732;9.248;2022-11-15T00:08:13;6.87;;;4.67;;
7306;SDS011;3694;48.732;9.248;2022-11-15T00:10:39;5.43;;;4.20;;
7306;SDS011;3694;48.732;9.248;2022-11-15T00:13:09;5.90;;;4.10;;
7306;SDS011;3694;48.732;9.248;2022-11-15T00:15:37;10.43;;;6.50;;
7306;SDS011;3694;48.732;9.248;2022-11-15T00:18:04;8.67;;;5.20;;
7306;SDS011;3694;48.732;9.248;2022-11-15T00:20:31;5.93;;;4.40;;
7306;SDS011;3694;48.732;9.248;2022-11-15T00:22:58;5.47;;;4.03;;
7306;SDS011;3694;48.732;9.248;2022-11-15T00:25:24;4.43;;;3.80;;
7306;SDS011;3694;48.732;9.248;2022-11-15T00:27:49;5.30;;;3.90;;
7306;SDS011;3694;48.732;9.248;2022-11-15T00:30:16;6.67;;;4.63;;
7306;SDS011;3694;48.732;9.248;2022-11-15T00:32:42;5.73;;;4.33;;
7306;SDS011;3694;48.732;9.248;2022-11-15T00:35:07;4.47;;;4.00;;
7306;SDS011;3694;48.732;9.248;2022-11-15T00:37:33;5.20;;;4.03;;
7306;SDS011;3694;48.732;9.248;2022-11-15T00:39:58;4.90;;;4.40;;
7306;SDS011;3694;48.732;9.248;2022-11-15T00:42:24;4.20;;;3.80;;
7306;SDS011;3694;48.732;9.248;2022-11-15T00:44:49;4.67;;;4.17;;
7306;SDS011;3694;48.732;9.248;2022-11-15T00:47:15;4.27;;;3.87;;
7306;SDS011;3694;48.732;9.248;2022-11-15T00:49:40;4.73;;;4.10;;
7306;SDS011;3694;48.732;9.248;2022-11-15T00:52:06;5.23;;;3.83;;
7306;SDS011;3694;48.732;9.248;2022-11-15T00:54:32;4.70;;;4.13;;
7306;SDS011;3694;48.732;9.248;2022-11-15T00:56:57;4.33;;;3.93;;
7306;SDS011;3694;48.732;9.248;2022-11-15T00:59:23;5.53;;;3.80;;
7306;SDS011;3694;48.732;9.248;2022-11-15T01:01:48;7.03;;;5.40;;
7306;SDS011;3694;48.732;9.248;2022-11-15T01:04:14;9.37;;;7.27;;
7306;SDS011;3694;48.732;9.248;2022-11-15T01:06:39;5.87;;;4.40;;
7306;SDS011;3694;48.732;9.248;2022-11-15T01:09:05;5.93;;;4.37;;
7306;SDS011;3694;48.732;9.248;2022-11-15T01:11:31;5.47;;;4.63;;
7306;SDS011;3694;48.732;9.248;2022-11-15T01:13:56;4.50;;;4.10;;
7306;SDS011;3694;48.732;9.248;2022-11-15T01:16:22;4.97;;;3.90;;
7306;SDS011;3694;48.732;9.248;2022-11-15T01:18:47;5.10;;;4.60;;
7306;SDS011;3694;48.732;9.248;2022-11-15T01:21:14;6.00;;;4.57;;
7306;SDS011;3694;48.732;9.248;2022-11-15T01:23:42;6.30;;;5.03;;
7306;SDS011;3694;48.732;9.248;2022-11-15T01:26:09;8.87;;;5.10;;
7306;SDS011;3694;48.732;9.248;2022-11-15T01:28:37;5.50;;;4.90;;
7306;SDS011;3694;48.732;9.248;2022-11-15T01:31:06;5.53;;;4.97;;
7306;SDS011;3694;48.732;9.248;2022-11-15T01:33:40;8.23;;;5.57;;
7306;SDS011;3694;48.732;9.248;2022-11-15T01:36:07;5.67;;;5.10;;
7306;SDS011;3694;48.732;9.248;2022-11-15T01:38:34;6.20;;;5.60;;
7306;SDS011;3694;48.732;9.248;2022-11-15T01:41:00;8.67;;;6.10;;
7306;SDS011;3694;48.732;9.248;2022-11-15T01:43:33;6.60;;;5.90;;
7306;SDS011;3694;48.732;9.248;2022-11-15T01:46:12;8.73;;;5.70;;
7306;SDS011;3694;48.732;9.248;2022-11-15T01:49:00;6.17;;;5.50;;
7306;SDS011;3694;48.732;9.248;2022-11-15T01:51:31;6.70;;;5.97;;
7306;SDS011;3694;48.732;9.248;2022-11-15T01:54:00;7.33;;;6.40;;
7306;SDS011;3694;48.732;9.248;2022-11-15T01:56:29;8.60;;;6.57;;
7306;SDS011;3694;48.732;9.248;2022-11-15T01:58:58;9.13;;;6.87;;
7306;SDS011;3694;48.732;9.248;2022-11-15T02:01:26;9.03;;;6.47;;
7306;SDS011;3694;48.732;9.248;2022-11-15T02:04:00;8.93;;;6.57;;
7306;SDS011;3694;48.732;9.248;2022-11-15T02:06:38;9.40;;;7.63;;
7306;SDS011;3694;48.732;9.248;2022-11-15T02:09:05;8.17;;;7.37;;
7306;SDS011;3694;48.732;9.248;2022-11-15T02:11:31;7.80;;;7.03;;
7306;SDS011;3694;48.732;9.248;2022-11-15T02:13:57;9.33;;;6.90;;
7306;SDS011;3694;48.732;9.248;2022-11-15T02:33:41;7.63;;;6.93;;
7306;SDS011;3694;48.732;9.248;2022-11-15T02:36:10;10.30;;;7.70;;
7306;SDS011;3694;48.732;9.248;2022-11-15T02:38:58;9.47;;;7.67;;
7306;SDS011;3694;48.732;9.248;2022-11-15T02:41:38;7.63;;;6.83;;
7306;SDS011;3694;48.732;9.248;2022-11-15T02:44:12;7.57;;;6.83;;
7306;SDS011;3694;48.732;9.248;2022-11-15T02:46:45;8.57;;;7.67;;
7306;SDS011;3694;48.732;9.248;2022-11-15T02:49:31;8.97;;;7.90;;
7306;SDS011;3694;48.732;9.248;2022-11-15T02:51:58;9.20;;;8.17;;
7306;SDS011;3694;48.732;9.248;2022-11-15T02:54:25;8.40;;;7.60;;
7306;SDS011;3694;48.732;9.248;2022-11-15T02:56:54;9.40;;;8.20;;
7306;SDS011;3694;48.732;9.248;2022-11-15T02:59:34;8.83;;;8.03;;
7306;SDS011;3694;48.732;9.248;2022-11-15T03:04:52;9.20;;;8.30;;
7306;SDS011;3694;48.732;9.248;2022-11-15T03:07:49;9.70;;;8.10;;
7306;SDS011;3694;48.732;9.248;2022-11-15T03:16:04;7.90;;;7.10;;
7306;SDS011;3694;48.732;9.248;2022-11-15T03:18:41;7.83;;;6.80;;
7306;SDS011;3694;48.732;9.248;2022-11-15T03:21:08;7.13;;;6.43;;
7306;SDS011;3694;48.732;9.248;2022-11-15T03:23:36;9.27;;;6.77;;
7306;SDS011;3694;48.732;9.248;2022-11-15T03:26:05;7.50;;;6.80;;
7306;SDS011;3694;48.732;9.248;2022-11-15T03:28:36;7.13;;;6.43;;
7306;SDS011;3694;48.732;9.248;2022-11-15T03:31:15;7.13;;;6.43;;
7306;SDS011;3694;48.732;9.248;2022-11-15T03:34:02;6.97;;;6.27;;
7306;SDS011;3694;48.732;9.248;2022-11-15T03:36:32;6.97;;;6.37;;
7306;SDS011;3694;48.732;9.248;2022-11-15T03:39:00;7.40;;;6.17;;
7306;SDS011;3694;48.732;9.248;2022-11-15T03:41:31;7.93;;;7.13;;
7306;SDS011;3694;48.732;9.248;2022-11-15T03:44:14;9.13;;;6.77;;
7306;SDS011;3694;48.732;9.248;2022-11-15T03:47:03;8.50;;;6.97;;
7306;SDS011;3694;48.732;9.248;2022-11-15T03:49:45;8.40;;;6.60;;
7306;SDS011;3694;48.732;9.248;2022-11-15T03:52:17;10.00;;;6.53;;
7306;SDS011;3694;48.732;9.248;2022-11-15T03:54:47;7.83;;;6.70;;
7306;SDS011;3694;48.732;9.248;2022-11-15T03:57:18;8.27;;;6.40;;
7306;SDS011;3694;48.732;9.248;2022-11-15T03:59:44;7.37;;;6.67;;
7306;SDS011;3694;48.732;9.248;2022-11-15T04:02:10;6.70;;;5.87;;
7306;SDS011;3694;48.732;9.248;2022-11-15T04:04:36;7.17;;;5.87;;
7306;SDS011;3694;48.732;9.248;2022-11-15T04:07:02;8.90;;;6.37;;
7306;SDS011;3694;48.732;9.248;2022-11-15T04:09:27;7.77;;;6.97;;
7306;SDS011;3694;48.732;9.248;2022-11-15T04:11:53;7.63;;;6.67;;
7306;SDS011;3694;48.732;9.248;2022-11-15T04:14:18;7.80;;;6.33;;
7306;SDS011;3694;48.732;9.248;2022-11-15T04:16:44;7.90;;;7.10;;
7306;SDS011;3694;48.732;9.248;2022-11-15T04:19:09;7.23;;;6.40;;
7306;SDS011;3694;48.732;9.248;2022-11-15T04:21:53;8.20;;;6.87;;
7306;SDS011;3694;48.732;9.248;2022-11-15T04:24:38;9.40;;;6.73;;
7306;SDS011;3694;48.732;9.248;2022-11-15T04:27:03;8.97;;;7.27;;
7306;SDS011;3694;48.732;9.248;2022-11-15T04:29:29;7.80;;;7.10;;
7306;SDS011;3694;48.732;9.248;2022-11-15T04:32:01;8.50;;;7.03;;
7306;SDS011;3694;48.732;9.248;2022-11-15T04:34:27;8.53;;;7.57;;
7306;SDS011;3694;48.732;9.248;2022-11-15T04:36:53;7.60;;;6.90;;
7306;SDS011;3694;48.732;9.248;2022-11-15T04:39:36;8.23;;;7.43;;
7306;SDS011;3694;48.732;9.248;2022-11-15T04:42:02;9.97;;;7.10;;
7306;SDS011;3694;48.732;9.248;2022-11-15T04:44:28;11.10;;;7.57;;
7306;SDS011;3694;48.732;9.248;2022-11-15T04:46:53;8.97;;;7.00;;
7306;SDS011;3694;48.732;9.248;2022-11-15T04:49:19;9.53;;;6.93;;
7306;SDS011;3694;48.732;9.248;2022-11-15T04:51:45;8.53;;;7.43;;
7306;SDS011;3694;48.732;9.248;2022-11-15T04:54:10;8.53;;;7.03;;
7306;SDS011;3694;48.732;9.248;2022-11-15T04:56:36;8.00;;;7.20;;
7306;SDS011;3694;48.732;9.248;2022-11-15T04:59:01;8.57;;;7.20;;
7306;SDS011;3694;48.732;9.248;2022-11-15T05:01:27;9.13;;;7.93;;
7306;SDS011;3694;48.732;9.248;2022-11-15T05:03:52;9.57;;;8.10;;
7306;SDS011;3694;48.732;9.248;2022-11-15T05:06:36;8.37;;;7.40;;
7306;SDS011;3694;48.732;9.248;2022-11-15T05:09:02;10.90;;;8.40;;
7306;SDS011;3694;48.732;9.248;2022-11-15T05:11:28;10.27;;;7.83;;
7306;SDS011;3694;48.732;9.248;2022-11-15T05:13:54;8.17;;;7.37;;
7306;SDS011;3694;48.732;9.248;2022-11-15T05:16:19;9.07;;;8.23;;
7306;SDS011;3694;48.732;9.248;2022-11-15T05:18:45;8.77;;;7.50;;
7306;SDS011;3694;48.732;9.248;2022-11-15T05:21:11;8.47;;;7.60;;
7306;SDS011;3694;48.732;9.248;2022-11-15T05:23:39;9.63;;;7.23;;
7306;SDS011;3694;48.732;9.248;2022-11-15T05:26:05;9.40;;;6.50;;
7306;SDS011;3694;48.732;9.248;2022-11-15T05:28:32;9.80;;;6.03;;
7306;SDS011;3694;48.732;9.248;2022-11-15T05:31:06;7.67;;;6.87;;
7306;SDS011;3694;48.732;9.248;2022-11-15T05:33:39;9.43;;;8.27;;
7306;SDS011;3694;48.732;9.248;2022-11-15T05:36:07;11.17;;;9.00;;
7306;SDS011;3694;48.732;9.248;2022-11-15T05:38:38;11.23;;;9.20;;
7306;SDS011;3694;48.732;9.248;2022-11-15T05:41:04;10.20;;;9.20;;
7306;SDS011;3694;48.732;9.248;2022-11-15T05:43:31;10.40;;;9.30;;
7306;SDS011;3694;48.732;9.248;2022-11-15T05:45:58;11.80;;;9.60;;
7306;SDS011;3694;48.732;9.248;2022-11-15T05:48:25;11.30;;;9.43;;
7306;SDS011;3694;48.732;9.248;2022-11-15T05:50:52;10.07;;;9.07;;
7306;SDS011;3694;48.732;9.248;2022-11-15T05:53:18;12.60;;;10.80;;
7306;SDS011;3694;48.732;9.248;2022-11-15T05:55:46;19.83;;;17.50;;
7306;SDS011;3694;48.732;9.248;2022-11-15T05:58:12;30.83;;;26.30;;
7306;SDS011;3694;48.732;9.248;2022-11-15T06:00:38;33.03;;;27.90;;
7306;SDS011;3694;48.732;9.248;2022-11-15T06:03:04;37.97;;;33.87;;
7306;SDS011;3694;48.732;9.248;2022-11-15T06:05:30;34.43;;;30.73;;
7306;SDS011;3694;48.732;9.248;2022-11-15T06:07:57;18.53;;;16.57;;
7306;SDS011;3694;48.732;9.248;2022-11-15T06:10:23;12.13;;;10.93;;
7306;SDS011;3694;48.732;9.248;2022-11-15T06:12:56;11.93;;;10.33;;
7306;SDS011;3694;48.732;9.248;2022-11-15T06:15:28;10.73;;;9.00;;
7306;SDS011;3694;48.732;9.248;2022-11-15T06:17:57;11.00;;;8.80;;
7306;SDS011;3694;48.732;9.248;2022-11-15T06:20:24;9.47;;;8.47;;
7306;SDS011;3694;48.732;9.248;2022-11-15T06:23:00;11.87;;;9.03;;
7306;SDS011;3694;48.732;9.248;2022-11-15T06:25:26;9.90;;;8.53;;
7306;SDS011;3694;48.732;9.248;2022-11-15T06:27:56;13.30;;;10.30;;
7306;SDS011;3694;48.732;9.248;2022-11-15T06:30:24;13.30;;;9.73;;
7306;SDS011;3694;48.732;9.248;2022-11-15T06:32:50;10.13;;;8.90;;
7306;SDS011;3694;48.732;9.248;2022-11-15T06:35:16;10.13;;;8.27;;
7306;SDS011;3694;48.732;9.248;2022-11-15T06:37:42;9.50;;;8.13;;
7306;SDS011;3694;48.732;9.248;2022-11-15T06:40:08;9.93;;;8.50;;
7306;SDS011;3694;48.732;9.248;2022-11-15T06:42:34;9.37;;;8.27;;
7306;SDS011;3694;48.732;9.248;2022-11-15T06:45:00;9.60;;;8.10;;
7306;SDS011;3694;48.732;9.248;2022-11-15T06:47:26;11.13;;;8.47;;
7306;SDS011;3694;48.732;9.248;2022-11-15T06:49:51;9.03;;;8.10;;
7306;SDS011;3694;48.732;9.248;2022-11-15T06:52:17;8.40;;;7.60;;
7306;SDS011;3694;48.732;9.248;2022-11-15T06:54:44;9.07;;;7.53;;
7306;SDS011;3694;48.732;9.248;2022-11-15T06:57:09;8.90;;;8.00;;
7306;SDS011;3694;48.732;9.248;2022-11-15T06:59:35;9.47;;;8.47;;
7306;SDS011;3694;48.732;9.248;2022-11-15T07:02:01;8.97;;;8.17;;
7306;SDS011;3694;48.732;9.248;2022-11-15T07:04:26;10.33;;;8.07;;
7306;SDS011;3694;48.732;9.248;2022-11-15T07:06:52;8.17;;;7.37;;
7306;SDS011;3694;48.732;9.248;2022-11-15T07:09:17;8.20;;;7.10;;
7306;SDS011;3694;48.732;9.248;2022-11-15T07:11:43;8.93;;;6.87;;
7306;SDS011;3694;48.732;9.248;2022-11-15T07:14:08;7.80;;;6.90;;
7306;SDS011;3694;48.732;9.248;2022-11-15T07:16:34;7.70;;;6.90;;
7306;SDS011;3694;48.732;9.248;2022-11-15T07:19:01;8.20;;;7.40;;
7306;SDS011;3694;48.732;9.248;2022-11-15T07:21:26;7.53;;;6.83;;
7306;SDS011;3694;48.732;9.248;2022-11-15T07:23:52;8.13;;;6.90;;
7306;SDS011;3694;48.732;9.248;2022-11-15T07:26:18;7.73;;;6.93;;
7306;SDS011;3694;48.732;9.248;2022-11-15T07:28:43;7.03;;;6.40;;
7306;SDS011;3694;48.732;9.248;2022-11-15T07:31:09;7.30;;;6.20;;
7306;SDS011;3694;48.732;9.248;2022-11-15T07:33:35;7.23;;;6.23;;
7306;SDS011;3694;48.732;9.248;2022-11-15T07:36:01;8.63;;;5.90;;
7306;SDS011;3694;48.732;9.248;2022-11-15T07:38:28;6.40;;;5.73;;
7306;SDS011;3694;48.732;9.248;2022-11-15T07:41:01;7.93;;;6.57;;
7306;SDS011;3694;48.732;9.248;2022-11-15T07:43:29;6.57;;;5.93;;
7306;SDS011;3694;48.732;9.248;2022-11-15T07:45:57;9.43;;;6.53;;
7306;SDS011;3694;48.732;9.248;2022-11-15T07:48:23;7.03;;;5.50;;
7306;SDS011;3694;48.732;9.248;2022-11-15T07:50:49;6.10;;;5.43;;
7306;SDS011;3694;48.732;9.248;2022-11-15T07:53:14;6.77;;;5.63;;
7306;SDS011;3694;48.732;9.248;2022-11-15T07:55:40;6.63;;;5.60;;
7306;SDS011;3694;48.732;9.248;2022-11-15T07:58:07;7.20;;;5.83;;
7306;SDS011;3694;48.732;9.248;2022-11-15T08:00:35;7.13;;;4.80;;
7306;SDS011;3694;48.732;9.248;2022-11-15T08:03:04;9.83;;;4.90;;
7306;SDS011;3694;48.732;9.248;2022-11-15T08:05:35;6.03;;;4.40;;
7306;SDS011;3694;48.732;9.248;2022-11-15T08:08:02;7.10;;;4.90;;
7306;SDS011;3694;48.732;9.248;2022-11-15T08:10:27;5.33;;;4.67;;
7306;SDS011;3694;48.732;9.248;2022-11-15T08:13:03;5.13;;;4.40;;
7306;SDS011;3694;48.732;9.248;2022-11-15T08:15:30;4.77;;;4.27;;
7306;SDS011;3694;48.732;9.248;2022-11-15T08:17:56;5.83;;;4.30;;
7306;SDS011;3694;48.732;9.248;2022-11-15T08:20:23;6.43;;;4.60;;
7306;SDS011;3694;48.732;9.248;2022-11-15T08:22:50;5.90;;;4.73;;
7306;SDS011;3694;48.732;9.248;2022-11-15T08:25:16;5.40;;;4.63;;
7306;SDS011;3694;48.732;9.248;2022-11-15T08:27:42;6.40;;;4.63;;
7306;SDS011;3694;48.732;9.248;2022-11-15T08:30:08;7.87;;;4.40;;
7306;SDS011;3694;48.732;9.248;2022-11-15T08:32:34;4.67;;;4.20;;
7306;SDS011;3694;48.732;9.248;2022-11-15T08:34:59;4.70;;;4.10;;
7306;SDS011;3694;48.732;9.248;2022-11-15T08:37:25;7.70;;;4.53;;
7306;SDS011;3694;48.732;9.248;2022-11-15T08:39:51;6.03;;;4.47;;
7306;SDS011;3694;48.732;9.248;2022-11-15T08:42:16;5.70;;;4.70;;
7306;SDS011;3694;48.732;9.248;2022-11-15T08:44:42;6.73;;;4.20;;
7306;SDS011;3694;48.732;9.248;2022-11-15T08:47:08;6.00;;;4.20;;
7306;SDS011;3694;48.732;9.248;2022-11-15T08:49:36;5.60;;;4.53;;
7306;SDS011;3694;48.732;9.248;2022-11-15T08:52:01;4.30;;;3.90;;
7306;SDS011;3694;48.732;9.248;2022-11-15T08:54:27;4.77;;;4.33;;
7306;SDS011;3694;48.732;9.248;2022-11-15T08:56:53;5.13;;;4.63;;
7306;SDS011;3694;48.732;9.248;2022-11-15T08:59:18;6.87;;;4.80;;
7306;SDS011;3694;48.732;9.248;2022-11-15T09:01:44;5.17;;;4.50;;
7306;SDS011;3694;48.732;9.248;2022-11-15T09:04:09;5.40;;;4.60;;
7306;SDS011;3694;48.732;9.248;2022-11-15T09:06:35;5.87;;;5.00;;
7306;SDS011;3694;48.732;9.248;2022-11-15T09:09:01;5.23;;;4.70;;
7306;SDS011;3694;48.732;9.248;2022-11-15T09:11:27;5.03;;;4.50;;
7306;SDS011;3694;48.732;9.248;2022-11-15T09:13:54;5.33;;;4.50;;
7306;SDS011;3694;48.732;9.248;2022-11-15T09:16:19;5.87;;;4.40;;
7306;SDS011;3694;48.732;9.248;2022-11-15T09:18:45;6.77;;;5.00;;
7306;SDS011;3694;48.732;9.248;2022-11-15T09:21:10;8.53;;;5.40;;
7306;SDS011;3694;48.732;9.248;2022-11-15T09:23:36;6.70;;;5.03;;
7306;SDS011;3694;48.732;9.248;2022-11-15T09:26:03;5.73;;;4.60;;
7306;SDS011;3694;48.732;9.248;2022-11-15T09:28:30;7.30;;;4.30;;
7306;SDS011;3694;48.732;9.248;2022-11-15T09:31:03;6.47;;;4.83;;
7306;SDS011;3694;48.732;9.248;2022-11-15T09:33:30;7.80;;;4.83;;
7306;SDS011;3694;48.732;9.248;2022-11-15T09:36:00;6.30;;;4.47;;
7306;SDS011;3694;48.732;9.248;2022-11-15T09:38:26;5.13;;;4.57;;
7306;SDS011;3694;48.732;9.248;2022-11-15T09:40:53;5.90;;;4.80;;
7306;SDS011;3694;48.732;9.248;2022-11-15T09:44:04;8.93;;;5.23;;
7306;SDS011;3694;48.732;9.248;2022-11-15T09:46:57;6.80;;;4.30;;
7306;SDS011;3694;48.732;9.248;2022-11-15T09:49:45;6.80;;;5.30;;
7306;SDS011;3694;48.732;9.248;2022-11-15T09:52:15;5.83;;;4.33;;
7306;SDS011;3694;48.732;9.248;2022-11-15T09:54:43;6.03;;;4.77;;
7306;SDS011;3694;48.732;9.248;2022-11-15T09:57:14;4.20;;;3.80;;
7306;SDS011;3694;48.732;9.248;2022-11-15T09:59:50;7.00;;;4.40;;
7306;SDS011;3694;48.732;9.248;2022-11-15T10:05:22;4.93;;;4.10;;
7306;SDS011;3694;48.732;9.248;2022-11-15T10:08:02;5.47;;;4.03;;
7306;SDS011;3694;48.732;9.248;2022-11-15T10:13:30;3.50;;;3.20;;
7306;SDS011;3694;48.732;9.248;2022-11-15T10:16:22;5.80;;;3.70;;
7306;SDS011;3694;48.732;9.248;2022-11-15T10:21:32;8.90;;;4.07;;
7306;SDS011;3694;48.732;9.248;2022-11-15T10:24:26;5.20;;;3.93;;
7306;SDS011;3694;48.732;9.248;2022-11-15T10:26:54;7.00;;;4.03;;
7306;SDS011;3694;48.732;9.248;2022-11-15T10:29:21;4.87;;;3.70;;
7306;SDS011;3694;48.732;9.248;2022-11-15T10:31:48;3.90;;;3.43;;
7306;SDS011;3694;48.732;9.248;2022-11-15T10:34:15;5.47;;;3.97;;
7306;SDS011;3694;48.732;9.248;2022-11-15T10:37:00;7.00;;;3.80;;
7306;SDS011;3694;48.732;9.248;2022-11-15T10:39:27;4.70;;;3.73;;
7306;SDS011;3694;48.732;9.248;2022-11-15T10:41:52;3.40;;;3.10;;
7306;SDS011;3694;48.732;9.248;2022-11-15T10:47:33;9.97;;;3.90;;
7306;SDS011;3694;48.732;9.248;2022-11-15T10:50:00;4.83;;;3.23;;
7306;SDS011;3694;48.732;9.248;2022-11-15T10:52:28;4.90;;;3.60;;
7306;SDS011;3694;48.732;9.248;2022-11-15T10:57:30;5.77;;;4.03;;
7306;SDS011;3694;48.732;9.248;2022-11-15T11:02:57;5.93;;;4.30;;
7306;SDS011;3694;48.732;9.248;2022-11-15T11:05:33;7.40;;;4.80;;
7306;SDS011;3694;48.732;9.248;2022-11-15T11:08:09;7.60;;;4.43;;
7306;SDS011;3694;48.732;9.248;2022-11-15T11:10:56;4.80;;;4.10;;
7306;SDS011;3694;48.732;9.248;2022-11-15T11:13:41;4.67;;;4.10;;
7306;SDS011;3694;48.732;9.248;2022-11-15T11:19:02;6.53;;;4.13;;
7306;SDS011;3694;48.732;9.248;2022-11-15T11:21:57;5.17;;;3.93;;
7306;SDS011;3694;48.732;9.248;2022-11-15T11:27:57;6.10;;;4.67;;
7306;SDS011;3694;48.732;9.248;2022-11-15T11:33:18;7.77;;;4.23;;
7306;SDS011;3694;48.732;9.248;2022-11-15T11:38:32;6.00;;;4.07;;
7306;SDS011;3694;48.732;9.248;2022-11-15T11:47:10;5.17;;;4.47;;
7306;SDS011;3694;48.732;9.248;2022-11-15T11:49:44;4.93;;;4.03;;
7306;SDS011;3694;48.732;9.248;2022-11-15T11:52:18;6.07;;;4.27;;
7306;SDS011;3694;48.732;9.248;2022-11-15T11:54:55;7.00;;;4.23;;
7306;SDS011;3694;48.732;9.248;2022-11-15T12:05:38;4.27;;;3.87;;
7306;SDS011;3694;48.732;9.248;2022-11-15T12:11:01;4.90;;;4.40;;
7306;SDS011;3694;48.732;9.248;2022-11-15T12:13:42;4.63;;;3.83;;
7306;SDS011;3694;48.732;9.248;2022-11-15T12:16:21;5.73;;;4.30;;
7306;SDS011;3694;48.732;9.248;2022-11-15T12:18:55;4.40;;;4.00;;
7306;SDS011;3694;48.732;9.248;2022-11-15T12:24:02;4.83;;;3.30;;
7306;SDS011;3694;48.732;9.248;2022-11-15T12:26:42;4.03;;;3.63;;
7306;SDS011;3694;48.732;9.248;2022-11-15T12:32:01;3.87;;;3.53;;
7306;SDS011;3694;48.732;9.248;2022-11-15T12:34:30;3.93;;;3.47;;
7306;SDS011;3694;48.732;9.248;2022-11-15T12:37:32;4.57;;;3.40;;
7306;SDS011;3694;48.732;9.248;2022-11-15T12:45:40;4.43;;;3.73;;
7306;SDS011;3694;48.732;9.248;2022-11-15T12:58:41;4.63;;;4.13;;
7306;SDS011;3694;48.732;9.248;2022-11-15T13:11:57;7.53;;;4.70;;
7306;SDS011;3694;48.732;9.248;2022-11-15T13:19:43;9.43;;;4.53;;
7306;SDS011;3694;48.732;9.248;2022-11-15T13:22:12;6.27;;;4.33;;
7306;SDS011;3694;48.732;9.248;2022-11-15T13:24:56;7.47;;;4.37;;
7306;SDS011;3694;48.732;9.248;2022-11-15T13:27:22;7.77;;;4.20;;
7306;SDS011;3694;48.732;9.248;2022-11-15T13:29:48;6.10;;;4.40;;
7306;SDS011;3694;48.732;9.248;2022-11-15T13:32:14;5.47;;;4.60;;
7306;SDS011;3694;48.732;9.248;2022-11-15T13:34:44;8.83;;;4.63;;
7306;SDS011;3694;48.732;9.248;2022-11-15T13:39:47;7.17;;;4.83;;
7306;SDS011;3694;48.732;9.248;2022-11-15T13:42:18;6.00;;;5.27;;
7306;SDS011;3694;48.732;9.248;2022-11-15T13:44:55;7.17;;;5.17;;
7306;SDS011;3694;48.732;9.248;2022-11-15T13:47:21;7.70;;;5.20;;
7306;SDS011;3694;48.732;9.248;2022-11-15T13:49:52;8.67;;;5.30;;
7306;SDS011;3694;48.732;9.248;2022-11-15T13:52:17;7.30;;;5.57;;
7306;SDS011;3694;48.732;9.248;2022-11-15T13:54:45;8.97;;;5.40;;
7306;SDS011;3694;48.732;9.248;2022-11-15T13:59:55;9.80;;;4.97;;
7306;SDS011;3694;48.732;9.248;2022-11-15T14:02:26;6.27;;;5.53;;
7306;SDS011;3694;48.732;9.248;2022-11-15T14:04:57;8.17;;;5.20;;
7306;SDS011;3694;48.732;9.248;2022-11-15T14:07:27;7.33;;;5.63;;
7306;SDS011;3694;48.732;9.248;2022-11-15T14:09:54;11.30;;;5.70;;
7306;SDS011;3694;48.732;9.248;2022-11-15T14:12:21;7.63;;;6.10;;
7306;SDS011;3694;48.732;9.248;2022-11-15T14:14:49;8.03;;;5.90;;
7306;SDS011;3694;48.732;9.248;2022-11-15T14:17:32;6.77;;;5.13;;
7306;SDS011;3694;48.732;9.248;2022-11-15T14:20:00;10.87;;;5.90;;
7306;SDS011;3694;48.732;9.248;2022-11-15T14:22:26;7.13;;;5.40;;
7306;SDS011;3694;48.732;9.248;2022-11-15T14:27:38;8.27;;;5.50;;
7306;SDS011;3694;48.732;9.248;2022-11-15T14:30:04;7.37;;;5.73;;
7306;SDS011;3694;48.732;9.248;2022-11-15T14:32:43;8.13;;;5.23;;
7306;SDS011;3694;48.732;9.248;2022-11-15T14:35:18;7.43;;;5.40;;
7306;SDS011;3694;48.732;9.248;2022-11-15T14:37:45;6.73;;;5.00;;
7306;SDS011;3694;48.732;9.248;2022-11-15T14:40:18;7.77;;;5.27;;
7306;SDS011;3694;48.732;9.248;2022-11-15T14:42:46;7.70;;;5.20;;
7306;SDS011;3694;48.732;9.248;2022-11-15T14:45:14;7.13;;;5.00;;
7306;SDS011;3694;48.732;9.248;2022-11-15T14:47:42;10.07;;;5.00;;
7306;SDS011;3694;48.732;9.248;2022-11-15T14:50:11;6.53;;;4.67;;
7306;SDS011;3694;48.732;9.248;2022-11-15T14:52:38;7.43;;;5.60;;
7306;SDS011;3694;48.732;9.248;2022-11-15T14:55:09;8.47;;;5.53;;
7306;SDS011;3694;48.732;9.248;2022-11-15T14:57:48;6.97;;;5.07;;
7306;SDS011;3694;48.732;9.248;2022-11-15T15:00:14;7.27;;;6.20;;
7306;SDS011;3694;48.732;9.248;2022-11-15T15:02:40;6.67;;;5.97;;
7306;SDS011;3694;48.732;9.248;2022-11-15T15:07:44;8.77;;;6.03;;
7306;SDS011;3694;48.732;9.248;2022-11-15T15:10:10;9.57;;;6.33;;
7306;SDS011;3694;48.732;9.248;2022-11-15T15:12:36;7.70;;;6.90;;
7306;SDS011;3694;48.732;9.248;2022-11-15T15:15:02;10.60;;;7.33;;
7306;SDS011;3694;48.732;9.248;2022-11-15T15:17:28;9.03;;;7.23;;
7306;SDS011;3694;48.732;9.248;2022-11-15T15:19:53;10.17;;;7.20;;
7306;SDS011;3694;48.732;9.248;2022-11-15T15:22:19;11.60;;;6.93;;
7306;SDS011;3694;48.732;9.248;2022-11-15T15:24:47;8.90;;;6.17;;
7306;SDS011;3694;48.732;9.248;2022-11-15T15:27:13;10.97;;;6.30;;
7306;SDS011;3694;48.732;9.248;2022-11-15T15:29:39;8.17;;;6.80;;
7306;SDS011;3694;48.732;9.248;2022-11-15T15:32:04;9.97;;;6.40;;
7306;SDS011;3694;48.732;9.248;2022-11-15T15:34:31;7.63;;;6.47;;
7306;SDS011;3694;48.732;9.248;2022-11-15T15:39:52;8.00;;;7.20;;
7306;SDS011;3694;48.732;9.248;2022-11-15T15:42:19;10.60;;;7.30;;
7306;SDS011;3694;48.732;9.248;2022-11-15T15:44:46;9.97;;;7.50;;
7306;SDS011;3694;48.732;9.248;2022-11-15T15:47:16;13.87;;;8.80;;
7306;SDS011;3694;48.732;9.248;2022-11-15T15:49:46;9.73;;;8.67;;
7306;SDS011;3694;48.732;9.248;2022-11-15T15:52:13;10.70;;;9.10;;
7306;SDS011;3694;48.732;9.248;2022-11-15T15:54:39;9.77;;;8.77;;
7306;SDS011;3694;48.732;9.248;2022-11-15T15:57:06;12.67;;;8.17;;
7306;SDS011;3694;48.732;9.248;2022-11-15T15:59:32;12.73;;;8.80;;
7306;SDS011;3694;48.732;9.248;2022-11-15T16:01:58;12.70;;;8.30;;
7306;SDS011;3694;48.732;9.248;2022-11-15T16:04:24;11.20;;;7.97;;
7306;SDS011;3694;48.732;9.248;2022-11-15T16:06:50;13.20;;;8.77;;
7306;SDS011;3694;48.732;9.248;2022-11-15T16:09:18;8.77;;;7.87;;
7306;SDS011;3694;48.732;9.248;2022-11-15T16:12:07;10.37;;;7.57;;
7306;SDS011;3694;48.732;9.248;2022-11-15T16:14:33;10.17;;;7.23;;
7306;SDS011;3694;48.732;9.248;2022-11-15T16:16:58;12.03;;;7.03;;
7306;SDS011;3694;48.732;9.248;2022-11-15T16:19:24;8.47;;;7.03;;
7306;SDS011;3694;48.732;9.248;2022-11-15T16:21:49;8.53;;;7.13;;
7306;SDS011;3694;48.732;9.248;2022-11-15T16:24:16;9.63;;;6.97;;
7306;SDS011;3694;48.732;9.248;2022-11-15T16:26:42;11.77;;;6.67;;
7306;SDS011;3694;48.732;9.248;2022-11-15T16:29:09;10.77;;;7.10;;
7306;SDS011;3694;48.732;9.248;2022-11-15T16:31:35;9.47;;;7.10;;
7306;SDS011;3694;48.732;9.248;2022-11-15T16:34:06;8.97;;;7.20;;
7306;SDS011;3694;48.732;9.248;2022-11-15T16:36:32;12.13;;;9.37;;
7306;SDS011;3694;48.732;9.248;2022-11-15T16:38:59;13.20;;;11.80;;
7306;SDS011;3694;48.732;9.248;2022-11-15T16:41:28;11.13;;;10.03;;
7306;SDS011;3694;48.732;9.248;2022-11-15T16:43:54;15.87;;;11.67;;
7306;SDS011;3694;48.732;9.248;2022-11-15T16:46:21;15.33;;;12.00;;
7306;SDS011;3694;48.732;9.248;2022-11-15T16:48:48;15.23;;;11.97;;
7306;SDS011;3694;48.732;9.248;2022-11-15T16:51:14;11.30;;;9.87;;
7306;SDS011;3694;48.732;9.248;2022-11-15T16:53:40;13.93;;;9.60;;
7306;SDS011;3694;48.732;9.248;2022-11-15T16:56:17;16.90;;;11.43;;
7306;SDS011;3694;48.732;9.248;2022-11-15T16:58:51;11.17;;;8.20;;
7306;SDS011;3694;48.732;9.248;2022-11-15T17:01:22;11.00;;;7.87;;
7306;SDS011;3694;48.732;9.248;2022-11-15T17:03:49;10.10;;;7.50;;
7306;SDS011;3694;48.732;9.248;2022-11-15T17:06:15;10.43;;;9.33;;
7306;SDS011;3694;48.732;9.248;2022-11-15T17:08:42;13.83;;;9.50;;
7306;SDS011;3694;48.732;9.248;2022-11-15T17:11:10;15.87;;;10.70;;
7306;SDS011;3694;48.732;9.248;2022-11-15T17:13:41;12.10;;;10.90;;
7306;SDS011;3694;48.732;9.248;2022-11-15T17:16:08;13.27;;;10.47;;
7306;SDS011;3694;48.732;9.248;2022-11-15T17:18:35;13.93;;;10.93;;
7306;SDS011;3694;48.732;9.248;2022-11-15T17:21:02;12.87;;;11.33;;
7306;SDS011;3694;48.732;9.248;2022-11-15T17:23:29;13.03;;;10.30;;
7306;SDS011;3694;48.732;9.248;2022-11-15T17:25:58;14.53;;;11.30;;
7306;SDS011;3694;48.732;9.248;2022-11-15T17:28:29;12.47;;;10.30;;